Airfield :
LOGIN :

Register | Disclaimer

   EN    FR    IT 

 










Legend :    VFR   Marginal VFR   IFR   Intensive IFR   Very Intensive IFR
Visi :
Ceiling :
>= 8 km
>= 3000ft
5 to 8 km
1000 to 3000 ft
1500m to 5 km
500 to 1000 ft
800 to 1500m
200 to 500 ft
< 800m
< 200 ft
Symbols :   Thunderstorms  Fog  Heavy snow  Heavy precipitations  Wind > 20 kt
SIGMETs :     Misc.  Thunderstorms  Icing  Turbulence  Mountain Waves  Volcanic Ashes







- Airport Elevation : 424 ft
- IATA code : QGY


LHPR - Györ Per

CURRENT METAR :
  • 261215Z VRB07KT CAVOK 12/M05 Q1022 RMK BLU

EXPIRED METARs :
  • 261145Z 02006KT 310V110 CAVOK 12/M06 Q1022 RMK BLU
  • 261115Z 03008KT 320V080 CAVOK 11/M05 Q1022 RMK BLU
  • 261045Z 02008KT 340V080 CAVOK 11/M05 Q1022 RMK BLU
  • 261015Z 35010KT 320V030 CAVOK 10/M05 Q1022 RMK BLU
  • 260945Z 02013KT 340V060 CAVOK 10/M04 Q1022 RMK BLU

TAF TAF LHPR
Valid from the 26 at 12:00 until the 26 at 21:00 UTC


261100Z 2612/2621 35010KT CAVOK
No reported NOTAMs for that airfield.



MET'MAP, your aeronautical weather chart ! - Copyright ORBIFLY December 2007 - Disclaimer

ORBIFLY MET'MAP TEAM :

Programming & Development : Alexandra Zaïnal
Concept & Development : Baudouin d'Aumeries
Co-Development & Prog : Marc-Olivier Méhu
Technical & hardware support : Manuel Goepfert

Contact : metmap@orbifly.com




SOURCES & CREDITS :

   NOAA